Home > Products > Valid Products > TAF

000
FTUS42 KCAE 281700
TAFOGB
TAF
KOGB 281723Z 2818/2918 02010KT P6SM SKC
     FM282300 VRB03KT P6SM SKC
     FM291500 17008KT P6SM SCT250=



000
FTUS42 KCAE 281700
TAFCAE
TAF
KCAE 281723Z 2818/2918 36008KT P6SM SKC
     FM282200 VRB03KT P6SM SKC
     FM291500 18008KT P6SM BKN250=



000
FTUS42 KCAE 281700
TAFCUB
TAF
KCUB 281723Z 2818/2918 36006KT P6SM SKC
     FM282200 00000KT P6SM SKC
     FM291500 17006KT P6SM BKN250=



000
FTUS42 KCAE 281700
TAFAGS
TAF
KAGS 281723Z 2818/2918 01006KT P6SM SKC
     FM282200 00000KT P6SM SKC
     FM291500 16006KT P6SM SCT250=



000
FTUS42 KCAE 281700
TAFDNL
TAF
KDNL 281723Z 2818/2918 36008KT P6SM SKC
     FM282200 VRB03KT P6SM SKC
     FM291500 16006KT P6SM BKN250=



000
FTUS42 KCAE 281400 AAA
TAFAGS
TAF AMD
KAGS 281449Z 2815/2912 02008G15KT P6SM SKC
     FM281700 36008KT P6SM SKC
     FM282200 VRB03KT P6SM SKC=



000
FTUS42 KCAE 281400 AAA
TAFCAE
TAF AMD
KCAE 281449Z 2815/2912 01010G15KT P6SM SKC
     FM281700 36008KT P6SM SKC
     FM282200 VRB03KT P6SM SKC=



000
FTUS42 KCAE 281400 AAA
TAFDNL
TAF AMD
KDNL 281449Z 2815/2912 02008G15KT P6SM SKC
     FM281700 36008KT P6SM SKC
     FM282200 VRB03KT P6SM SKC=



000
FTUS42 KCAE 281400 AAA
TAFCUB
TAF AMD
KCUB 281449Z 2815/2912 01007KT P6SM SKC
     FM282300 VRB03KT P6SM SKC=



000
FTUS42 KCAE 281400 AAA
TAFOGB
TAF AMD
KOGB 281449Z 2815/2912 02012G18KT P6SM SKC
     FM281800 36008KT P6SM SKC
     FM282200 VRB03KT P6SM SKC=



000
FTUS42 KCAE 281400 AAA
TAFDNL
TAF AMD
KDNL 281449Z 2815/2912 02008G15KT P6SM SKC
     FM281700 36008KT P6SM SKC
     FM282200 VRB03KT P6SM SKC=



000
FTUS42 KCAE 281400 AAA
TAFCUB
TAF AMD
KCUB 281449Z 2815/2912 01007KT P6SM SKC
     FM282300 VRB03KT P6SM SKC=



000
FTUS42 KCAE 281400 AAA
TAFOGB
TAF AMD
KOGB 281449Z 2815/2912 02012G18KT P6SM SKC
     FM281800 36008KT P6SM SKC
     FM282200 VRB03KT P6SM SKC=



000
FTUS42 KCAE 281400 AAA
TAFCAE
TAF AMD
KCAE 281449Z 2815/2912 01010G15KT P6SM SKC
     FM281700 36008KT P6SM SKC
     FM282200 VRB03KT P6SM SKC=



000
FTUS42 KCAE 281400 AAA
TAFAGS
TAF AMD
KAGS 281449Z 2815/2912 02008G15KT P6SM SKC
     FM281700 36008KT P6SM SKC
     FM282200 VRB03KT P6SM SKC=



000
FTUS42 KCAE 281100
TAFOGB
TAF
KOGB 281124Z 2812/2912 33005KT P6SM SKC
     FM281400 35008G15KT P6SM SKC
     FM281800 36008KT P6SM SKC
     FM282200 VRB03KT P6SM SKC=



000
FTUS42 KCAE 281100
TAFAGS
TAF
KAGS 281124Z 2812/2912 32005KT P6SM SKC
     FM281400 35008G15KT P6SM SKC
     FM281700 36008KT P6SM SKC
     FM282200 VRB03KT P6SM SKC=



000
FTUS42 KCAE 281100
TAFCUB
TAF
KCUB 281124Z 2812/2912 33005KT P6SM SKC
     FM281400 35006G12KT P6SM SKC
     FM281700 36006KT P6SM SKC
     FM282300 VRB03KT P6SM SKC=



000
FTUS42 KCAE 281100
TAFCAE
TAF
KCAE 281124Z 2812/2912 32005KT P6SM SKC
     FM281400 35008G15KT P6SM SKC
     FM281700 36008KT P6SM SKC
     FM282200 VRB03KT P6SM SKC=



000
FTUS42 KCAE 281100
TAFDNL
TAF
KDNL 281124Z 2812/2912 32005KT P6SM SKC
     FM281400 35008G15KT P6SM SKC
     FM281700 36008KT P6SM SKC
     FM282200 VRB03KT P6SM SKC=



000
FTUS42 KCAE 280800 AAA
TAFCAE
TAF AMD
KCAE 280859Z 2809/2906 32005KT P6SM SKC
     FM281400 35008G15KT P6SM SKC
     FM281700 36008KT P6SM SKC
     FM282200 VRB03KT P6SM SKC=



000
FTUS42 KCAE 280800 AAA
TAFOGB
TAF AMD
KOGB 280859Z 2809/2906 33005KT P6SM SKC
     FM281400 35008G15KT P6SM SKC
     FM281800 36008KT P6SM SKC
     FM282200 VRB03KT P6SM SKC=



000
FTUS42 KCAE 280800 AAA
TAFCUB
TAF AMD
KCUB 280859Z 2809/2906 33005KT P6SM SKC
     FM281400 35006G12KT P6SM SKC
     FM281700 36006KT P6SM SKC
     FM282300 VRB03KT P6SM SKC=



000
FTUS42 KCAE 280800 AAA
TAFAGS
TAF AMD
KAGS 280859Z 2809/2906 32005KT P6SM SKC
     FM281400 35008G15KT P6SM SKC
     FM281700 36008KT P6SM SKC
     FM282200 VRB03KT P6SM SKC=



000
FTUS42 KCAE 280800 AAA
TAFDNL
TAF AMD
KDNL 280859Z 2809/2906 32005KT P6SM SKC
     FM281400 35008G15KT P6SM SKC
     FM281700 36008KT P6SM SKC
     FM282200 VRB03KT P6SM SKC=



000
FTUS42 KCAE 280800 AAA
TAFCAE
TAF AMD
KCAE 280859Z 2809/2906 32005KT P6SM SKC
     FM281400 35008G15KT P6SM SKC
     FM281700 36008KT P6SM SKC
     FM282200 VRB03KT P6SM SKC=



000
FTUS42 KCAE 280800 AAA
TAFDNL
TAF AMD
KDNL 280859Z 2809/2906 32005KT P6SM SKC
     FM281400 35008G15KT P6SM SKC
     FM281700 36008KT P6SM SKC
     FM282200 VRB03KT P6SM SKC=



000
FTUS42 KCAE 280800 AAA
TAFOGB
TAF AMD
KOGB 280859Z 2809/2906 33005KT P6SM SKC
     FM281400 35008G15KT P6SM SKC
     FM281800 36008KT P6SM SKC
     FM282200 VRB03KT P6SM SKC=



000
FTUS42 KCAE 280800 AAA
TAFCUB
TAF AMD
KCUB 280859Z 2809/2906 33005KT P6SM SKC
     FM281400 35006G12KT P6SM SKC
     FM281700 36006KT P6SM SKC
     FM282300 VRB03KT P6SM SKC=



000
FTUS42 KCAE 280800 AAA
TAFAGS
TAF AMD
KAGS 280859Z 2809/2906 32005KT P6SM SKC
     FM281400 35008G15KT P6SM SKC
     FM281700 36008KT P6SM SKC
     FM282200 VRB03KT P6SM SKC=



000
FTUS42 KCAE 280500
TAFDNL
TAF
KDNL 280525Z 2806/2906 32006KT P6SM SKC
     FM281400 35008G15KT P6SM SKC
     FM281700 36008KT P6SM SKC
     FM282200 VRB03KT P6SM SKC=



000
FTUS42 KCAE 280500
TAFCUB
TAF
KCUB 280525Z 2806/2906 33005KT P6SM SKC
     FM281400 35006G12KT P6SM SKC
     FM281700 36006KT P6SM SKC
     FM282300 VRB03KT P6SM SKC=



000
FTUS42 KCAE 280500
TAFAGS
TAF
KAGS 280525Z 2806/2906 32006KT P6SM SKC
     FM281400 35008G15KT P6SM SKC
     FM281700 36008KT P6SM SKC
     FM282200 VRB03KT P6SM SKC=



000
FTUS42 KCAE 280500
TAFOGB
TAF
KOGB 280525Z 2806/2906 33005KT P6SM SKC
     FM281400 35008G15KT P6SM SKC
     FM281800 36008KT P6SM SKC
     FM282200 VRB03KT P6SM SKC=



000
FTUS42 KCAE 280500
TAFCAE
TAF
KCAE 280525Z 2806/2906 32005KT P6SM SKC
     FM281400 35008G15KT P6SM SKC
     FM281700 36008KT P6SM SKC
     FM282200 VRB03KT P6SM SKC=



000
FTUS42 KCAE 280200 AAA
TAFAGS
TAF AMD
KAGS 280231Z 2803/2824 31011KT P6SM SKC
     FM280600 33006KT P6SM SKC
     FM281400 01007KT P6SM SKC=



000
FTUS42 KCAE 280200 AAA
TAFCUB
TAF AMD
KCUB 280231Z 2803/2824 35006KT P6SM SKC=



000
FTUS42 KCAE 280200 AAA
TAFOGB
TAF AMD
KOGB 280231Z 2803/2824 VRB03KT P6SM SKC
     FM281300 36010KT P6SM SKC=



000
FTUS42 KCAE 280200 AAA
TAFCAE
TAF AMD
KCAE 280231Z 2803/2824 35006KT P6SM SKC=



000
FTUS42 KCAE 280200 AAA
TAFDNL
TAF AMD
KDNL 280231Z 2803/2824 31011KT P6SM SKC
     FM280600 33006KT P6SM SKC
     FM281400 01007KT P6SM SKC=



000
FTUS42 KCAE 280200 AAA
TAFDNL
TAF AMD
KDNL 280231Z 2803/2824 31011KT P6SM SKC
     FM280600 33006KT P6SM SKC
     FM281400 01007KT P6SM SKC=



000
FTUS42 KCAE 280200 AAA
TAFOGB
TAF AMD
KOGB 280231Z 2803/2824 VRB03KT P6SM SKC
     FM281300 36010KT P6SM SKC=



000
FTUS42 KCAE 280200 AAA
TAFAGS
TAF AMD
KAGS 280231Z 2803/2824 31011KT P6SM SKC
     FM280600 33006KT P6SM SKC
     FM281400 01007KT P6SM SKC=



000
FTUS42 KCAE 280200 AAA
TAFCAE
TAF AMD
KCAE 280231Z 2803/2824 35006KT P6SM SKC=



000
FTUS42 KCAE 280200 AAA
TAFCUB
TAF AMD
KCUB 280231Z 2803/2824 35006KT P6SM SKC=



000
FTUS42 KCAE 272300
TAFCAE
TAF
KCAE 272320Z 2800/2824 30006KT P6SM SKC
     FM281300 01008KT P6SM SKC=



000
FTUS42 KCAE 272300
TAFDNL
TAF
KDNL 272320Z 2800/2824 31006KT P6SM FEW060
     FM281400 01008KT P6SM SKC=



000
FTUS42 KCAE 272300
TAFCUB
TAF
KCUB 272320Z 2800/2824 VRB03KT P6SM SKC
     FM281300 01006KT P6SM SKC=



000
FTUS42 KCAE 272300
TAFOGB
TAF
KOGB 272320Z 2800/2824 33005KT P6SM SKC
     FM281300 01010KT P6SM SKC=



000
FTUS42 KCAE 272300
TAFAGS
TAF
KAGS 272320Z 2800/2824 31006KT P6SM FEW060
     FM281400 01007KT P6SM SKC=



000
FTUS42 KCAE 272000 AAB
TAFAGS
TAF AMD
KAGS 272052Z 2721/2818 33012G21KT P6SM BKN060
     FM272300 32007KT P6SM FEW050
     FM281500 01008KT P6SM SKC=



000
FTUS42 KCAE 272000 AAA
TAFOGB
TAF AMD
KOGB 272052Z 2721/2818 31010G16KT P6SM SCT060
     FM272300 32006KT P6SM SKC
     FM281400 01010KT P6SM SKC=



000
FTUS42 KCAE 272000 AAA
TAFCUB
TAF AMD
KCUB 272052Z 2721/2818 31008KT P6SM SCT070
     FM272300 30005KT P6SM FEW080
     FM281400 01006KT P6SM SKC=



000
FTUS42 KCAE 272000 AAA
TAFCAE
TAF AMD
KCAE 272052Z 2721/2818 30010G17KT P6SM SCT070
     FM272300 30006KT P6SM FEW080
     FM281400 01008KT P6SM SKC=



000
FTUS42 KCAE 272000 AAB
TAFDNL
TAF AMD
KDNL 272052Z 2721/2818 32011KT P6SM BKN060
     FM272300 31008KT P6SM FEW050
     FM281500 02008KT P6SM SKC=



000
FTUS42 KCAE 271900 AAA
TAFAGS
TAF AMD
KAGS 271933Z 2720/2818 33010G20KT P6SM BKN050
     FM272300 32007KT P6SM FEW050
     FM281500 01008KT P6SM SKC=



000
FTUS42 KCAE 271900 AAA
TAFDNL
TAF AMD
KDNL 271930Z 2720/2818 32008G16KT P6SM BKN050
     FM272300 31008KT P6SM FEW050
     FM281500 02008KT P6SM SKC=



000
FTUS42 KCAE 271700
TAFCUB
TAF
KCUB 271724Z 2718/2818 32008KT P6SM OVC080
     FM272300 30005KT P6SM SCT100
     FM281400 01006KT P6SM SKC=



000
FTUS42 KCAE 271700
TAFOGB
TAF
KOGB 271724Z 2718/2818 31010KT P6SM OVC090
     FM272300 32006KT P6SM SKC
     FM281400 01010KT P6SM SKC=



000
FTUS42 KCAE 271700
TAFAGS
TAF
KAGS 271724Z 2718/2818 31010KT P6SM SCT040 BKN090
     FM272300 32007KT P6SM SCT045
     FM281500 01008KT P6SM SKC=



000
FTUS42 KCAE 271700
TAFCAE
TAF
KCAE 271724Z 2718/2818 31010KT P6SM OVC080
     FM272300 30006KT P6SM SCT100
     FM281400 01008KT P6SM SKC=



000
FTUS42 KCAE 271700
TAFDNL
TAF
KDNL 271724Z 2718/2818 02006KT P6SM SCT040 BKN090
     FM272300 31008KT P6SM SCT045
     FM281500 02008KT P6SM SKC=



000
FTUS42 KCAE 271400 AAA
TAFOGB
TAF AMD
KOGB 271442Z 2715/2812 29010KT P6SM BKN080 OVC120
     FM271800 30010G18KT P6SM SCT050 BKN100
     FM272300 32007KT P6SM SKC=



000
FTUS42 KCAE 271400 AAA
TAFCUB
TAF AMD
KCUB 271442Z 2715/2812 27005KT P6SM OVC080
     FM271700 30008G15KT P6SM SCT050 BKN100
     FM272300 32005KT P6SM SKC=



000
FTUS42 KCAE 271400 AAB
TAFAGS
TAF AMD
KAGS 271442Z 2715/2812 28006KT P6SM OVC080
     FM271700 30010G18KT P6SM SCT050 BKN100
     FM272300 31008KT P6SM SKC=



000
FTUS42 KCAE 271400 AAB
TAFDNL
TAF AMD
KDNL 271442Z 2715/2812 28006KT P6SM OVC080
     FM271700 30008G16KT P6SM SCT050 BKN100
     FM272300 31008KT P6SM SKC=



000
FTUS42 KCAE 271400 AAA
TAFCAE
TAF AMD
KCAE 271442Z 2715/2812 27008KT P6SM OVC080
     FM271700 30009G15KT P6SM SCT050 BKN100
     FM272300 32005KT P6SM SKC=



000
FTUS42 KCAE 271300 AAA
TAFAGS
TAF AMD
KAGS 271347Z 2714/2812 28006KT P6SM OVC080
     FM271600 30010G17KT P6SM SCT050 BKN100
     FM272300 31008KT P6SM SKC=



000
FTUS42 KCAE 271300 AAA
TAFDNL
TAF AMD
KDNL 271347Z 2714/2812 29006KT P6SM OVC080
     FM271600 30010G16KT P6SM SCT050 BKN100
     FM272300 31008KT P6SM SKC=



000
FTUS42 KCAE 271100
TAFOGB
TAF
KOGB 271138Z 2712/2812 29007KT P6SM SCT120
     FM271500 30009G15KT P6SM SCT050 BKN100
     FM272300 32007KT P6SM SKC=



000
FTUS42 KCAE 271100
TAFCAE
TAF
KCAE 271138Z 2712/2812 28008KT P6SM SCT120
     FM271500 30009G15KT P6SM SCT050 BKN100
     FM272300 32007KT P6SM SKC=



000
FTUS42 KCAE 271100
TAFDNL
TAF
KDNL 271138Z 2712/2812 29007KT P6SM SCT100
     FM271500 30010G16KT P6SM SCT050 BKN100
     FM272300 31008KT P6SM SKC=



000
FTUS42 KCAE 271100
TAFCUB
TAF
KCUB 271138Z 2712/2812 30006KT P6SM SCT120
     FM271500 30009G15KT P6SM SCT050 BKN100
     FM272300 32007KT P6SM SKC=



000
FTUS42 KCAE 271100
TAFAGS
TAF
KAGS 271138Z 2712/2812 29007KT P6SM SCT100
     FM271500 30010G17KT P6SM SCT050 BKN100
     FM272300 31008KT P6SM SKC=



000
FTUS42 KCAE 270800 AAA
TAFDNL
TAF AMD
KDNL 270851Z 2709/2806 29007KT P6SM SCT100
     FM271500 30010G16KT P6SM SCT050 BKN100
     FM272300 31008KT P6SM SKC=



000
FTUS42 KCAE 270800 AAA
TAFOGB
TAF AMD
KOGB 270851Z 2709/2806 29009KT P6SM SCT120
     FM271500 30009G15KT P6SM SCT050 BKN100
     FM272300 32007KT P6SM SKC=



000
FTUS42 KCAE 270800 AAA
TAFAGS
TAF AMD
KAGS 270851Z 2709/2806 30007KT P6SM SCT100
     FM271500 30010G17KT P6SM SCT050 BKN100
     FM272300 31008KT P6SM SKC=



000
FTUS42 KCAE 270800 AAA
TAFCUB
TAF AMD
KCUB 270851Z 2709/2806 30006KT P6SM SCT120
     FM271500 30009G15KT P6SM SCT050 BKN100
     FM272300 32007KT P6SM SKC=



000
FTUS42 KCAE 270800 AAA
TAFCAE
TAF AMD
KCAE 270851Z 2709/2806 28008KT P6SM SCT120
     FM271500 30009G15KT P6SM SCT050 BKN100
     FM272300 32007KT P6SM SKC=



000
FTUS42 KCAE 270500
TAFCUB
TAF
KCUB 270535Z 2706/2806 30009KT P6SM BKN120
     FM271500 30009G15KT P6SM SCT050 BKN100
     FM272300 32007KT P6SM SKC=



000
FTUS42 KCAE 270500
TAFDNL
TAF
KDNL 270535Z 2706/2806 29008KT P6SM SCT100
     FM271500 30010G16KT P6SM SCT050 BKN100
     FM272300 31008KT P6SM SKC=



000
FTUS42 KCAE 270500
TAFOGB
TAF
KOGB 270535Z 2706/2806 29009KT P6SM BKN120
     FM271500 30009G15KT P6SM SCT050 BKN100
     FM272300 32007KT P6SM SKC=



000
FTUS42 KCAE 270500
TAFAGS
TAF
KAGS 270535Z 2706/2806 30009KT P6SM SCT100
     FM271500 30010G17KT P6SM SCT050 BKN100
     FM272300 31008KT P6SM SKC=



000
FTUS42 KCAE 270500
TAFCAE
TAF
KCAE 270535Z 2706/2806 30008KT P6SM BKN120
     FM271500 30009G15KT P6SM SCT050 BKN100
     FM272300 32007KT P6SM SKC=



000
FTUS42 KCAE 270200 AAA
TAFDNL
TAF AMD
KDNL 270231Z 2703/2724 29010KT P6SM SCT040=



000
FTUS42 KCAE 270200 AAA
TAFOGB
TAF AMD
KOGB 270231Z 2703/2724 29010G20KT P6SM SCT040
     FM270500 29008KT P6SM SCT040=



000
FTUS42 KCAE 270200 AAA
TAFCUB
TAF AMD
KCUB 270231Z 2703/2724 30008KT P6SM SCT040=



000
FTUS42 KCAE 270200 AAA
TAFAGS
TAF AMD
KAGS 270231Z 2703/2724 29010KT P6SM SCT040=



000
FTUS42 KCAE 270200 AAA
TAFCAE
TAF AMD
KCAE 270231Z 2703/2724 30008KT P6SM SCT040=



000
FTUS42 KCAE 262300
TAFDNL
TAF
KDNL 262329Z 2700/2724 29014G24KT P6SM SCT040
     FM270500 29010KT P6SM SCT040=



000
FTUS42 KCAE 262300
TAFOGB
TAF
KOGB 262329Z 2700/2724 29012G22KT P6SM SCT040
     FM270500 29008KT P6SM SCT040=



000
FTUS42 KCAE 262300
TAFCAE
TAF
KCAE 262329Z 2700/2724 29012G22KT P6SM SCT040
     FM270500 30008KT P6SM SCT040=



000
FTUS42 KCAE 262300
TAFAGS
TAF
KAGS 262329Z 2700/2724 29014G24KT P6SM SCT040
     FM270500 29010KT P6SM SCT040=



000
FTUS42 KCAE 262300
TAFCUB
TAF
KCUB 262329Z 2700/2724 29010G20KT P6SM SCT040
     FM270500 30008KT P6SM SCT040=



000
FTUS42 KCAE 262000 AAA
TAFCAE
TAF AMD
KCAE 262037Z 2621/2718 30012G20KT P6SM SCT040
     FM270700 29010KT P6SM SCT100=



000
FTUS42 KCAE 262000 AAA
TAFAGS
TAF AMD
KAGS 262037Z 2621/2718 29015G25KT P6SM SCT040
     FM270700 29010KT P6SM SCT100=



000
FTUS42 KCAE 262000 AAA
TAFDNL
TAF AMD
KDNL 262037Z 2621/2718 29012G22KT P6SM SCT040
     FM270700 29010KT P6SM SCT100=



000
FTUS42 KCAE 262000 AAA
TAFCUB
TAF AMD
KCUB 262037Z 2621/2718 30010G18KT P6SM SCT040
     FM270700 29008KT P6SM SCT100=



000
FTUS42 KCAE 262000 AAA
TAFOGB
TAF AMD
KOGB 262037Z 2621/2718 29015G25KT P6SM SCT040
     FM270800 28010KT P6SM SCT100
     FM271500 32010G20KT P6SM SCT040=



000
FTUS42 KCAE 261700
TAFDNL
TAF
KDNL 261729Z 2618/2718 30015G25KT P6SM OVC040
     FM270100 29012G22KT P6SM SCT100
     FM270700 29010KT P6SM SCT100=



000
FTUS42 KCAE 261700
TAFCUB
TAF
KCUB 261729Z 2618/2718 29015G25KT P6SM BKN040
     FM270200 30010G18KT P6SM SCT100
     FM270700 29008KT P6SM SCT100=



000
FTUS42 KCAE 261700
TAFCAE
TAF
KCAE 261729Z 2618/2718 29016G28KT P6SM BKN040
     FM270000 30012G20KT P6SM SCT100
     FM270700 29010KT P6SM SCT100=



000
FTUS42 KCAE 261700
TAFAGS
TAF
KAGS 261729Z 2618/2718 30020G30KT P6SM OVC040
     FM270100 29015G25KT P6SM SCT100
     FM270700 29010KT P6SM SCT100=



000
FTUS42 KCAE 261700
TAFOGB
TAF
KOGB 261729Z 2618/2718 29016G28KT P6SM BKN040
     FM270100 29015G25KT P6SM SCT100
     FM270800 28010KT P6SM SCT100
     FM271500 32010G20KT P6SM SCT040=



000
FTUS42 KCAE 261500 AAC
TAFAGS
TAF AMD
KAGS 261522Z 2615/2712 29013G20KT P6SM SKC
     FM261700 29018G28KT P6SM SCT020 OVC035
     FM270200 29014G25KT P6SM SCT150
     FM270900 29008G14KT P6SM SCT150=



000
FTUS42 KCAE 261500 AAC
TAFDNL
TAF AMD
KDNL 261522Z 2615/2712 29010G20KT P6SM SKC
     FM261700 29015G25KT P6SM SCT020 OVC035
     FM270200 29012G22KT P6SM SCT150
     FM270900 29008G14KT P6SM SCT150=



000
FTUS42 KCAE 261500 AAB
TAFCUB
TAF AMD
KCUB 261500Z 2615/2712 27010G20KT P6SM FEW025
     FM261800 29015G25KT P6SM BKN035
     FM270200 30010G15KT P6SM SCT150
     FM270900 29008G14KT P6SM SCT150=



000
FTUS42 KCAE 261500 AAB
TAFOGB
TAF AMD
KOGB 261500Z 2615/2712 29012G20KT P6SM SKC
     FM261800 29018G28KT P6SM SCT020 OVC035
     FM270200 30013G25KT P6SM SCT150
     FM271000 28008G14KT P6SM SCT150=



000
FTUS42 KCAE 261500 AAB
TAFAGS
TAF AMD
KAGS 261500Z 2615/2712 29010G20KT P6SM SCT020 BKN035
     FM261700 29018G28KT P6SM SCT020 OVC035
     FM270200 29014G25KT P6SM SCT150
     FM270900 29008G14KT P6SM SCT150=



000
FTUS42 KCAE 261500 AAB
TAFDNL
TAF AMD
KDNL 261500Z 2615/2712 29010G20KT P6SM SCT020 BKN035
     FM261700 29015G25KT P6SM SCT020 OVC035
     FM270200 29012G22KT P6SM SCT150
     FM270900 29008G14KT P6SM SCT150=



000
FTUS42 KCAE 261500 AAB
TAFCAE
TAF AMD
KCAE 261500Z 2615/2712 27015G25KT P6SM FEW025
     FM261800 29015G25KT P6SM BKN035
     FM270200 30012G22KT P6SM SCT150
     FM270900 29008G14KT P6SM SCT150=



000
FTUS42 KCAE 261100 AAA
TAFOGB
TAF AMD
KOGB 261146Z 2612/2712 24006KT P6SM SKC
     FM261500 27012G20KT P6SM SCT020 BKN035 BKN100
     FM261800 29015G25KT P6SM BKN120
     FM270200 30011G17KT P6SM SCT150
     FM271000 28008G14KT P6SM SCT150=



000
FTUS42 KCAE 261100 AAA
TAFDNL
TAF AMD
KDNL 261146Z 2612/2712 24006KT P6SM SKC
     FM261400 27012G20KT P6SM SCT020 BKN035 BKN120
     FM261700 29015G25KT P6SM BKN120
     FM270200 29012G18KT P6SM SCT150
     FM270900 29008G14KT P6SM SCT150=



000
FTUS42 KCAE 261100 AAA
TAFCUB
TAF AMD
KCUB 261146Z 2612/2712 25008KT P6SM SKC
     FM261500 27012G20KT P6SM SCT020 BKN035 BKN100
     FM261800 29015G25KT P6SM BKN120
     FM270200 30010G15KT P6SM SCT150
     FM270900 29008G14KT P6SM SCT150=



000
FTUS42 KCAE 261100 AAA
TAFCAE
TAF AMD
KCAE 261146Z 2612/2712 25008KT P6SM SKC
     FM261500 27011G18KT P6SM SCT020 BKN035 BKN100
     FM261800 29015G25KT P6SM BKN120
     FM270200 30010G15KT P6SM SCT150
     FM270900 29008G14KT P6SM SCT150=



000
FTUS42 KCAE 261100 AAA
TAFAGS
TAF AMD
KAGS 261146Z 2612/2712 25008KT P6SM SKC
     FM261400 27012G20KT P6SM SCT020 BKN035 BKN120
     FM261800 29016G25KT P6SM BKN120
     FM270200 29012G18KT P6SM SCT150
     FM270900 29008G14KT P6SM SCT150=



000
FTUS42 KCAE 261100
TAFCUB
TAF
KCUB 261120Z 2612/2712 25008KT P6SM SCT050 BKN100
     FM261500 27012G20KT P6SM SCT020 BKN035 BKN100
     FM261800 29015G25KT P6SM BKN120
     FM270200 30010G15KT P6SM SCT150
     FM270900 29008G14KT P6SM SCT150=



000
FTUS42 KCAE 261100
TAFDNL
TAF
KDNL 261120Z 2612/2712 24006KT P6SM BKN035 BKN100
     FM261400 27012G20KT P6SM SCT020 BKN035 BKN120
     FM261700 29015G25KT P6SM BKN120
     FM270200 29012G18KT P6SM SCT150
     FM270900 29008G14KT P6SM SCT150=



000
FTUS42 KCAE 261100
TAFAGS
TAF
KAGS 261120Z 2612/2712 25008KT P6SM BKN035 BKN100
     FM261400 27012G20KT P6SM SCT020 BKN035 BKN120
     FM261800 29016G25KT P6SM BKN120
     FM270200 29012G18KT P6SM SCT150
     FM270900 29008G14KT P6SM SCT150=



000
FTUS42 KCAE 261100
TAFOGB
TAF
KOGB 261120Z 2612/2712 24006KT P6SM BKN035 BKN100
     FM261500 27012G20KT P6SM SCT020 BKN035 BKN100
     FM261800 29015G25KT P6SM BKN120
     FM270200 30011G17KT P6SM SCT150
     FM271000 28008G14KT P6SM SCT150=



000
FTUS42 KCAE 261100
TAFCAE
TAF
KCAE 261120Z 2612/2712 25008KT P6SM SCT050 BKN100
     FM261500 27011G18KT P6SM SCT020 BKN035 BKN100
     FM261800 29015G25KT P6SM BKN120
     FM270200 30010G15KT P6SM SCT150
     FM270900 29008G14KT P6SM SCT150=



000
FTUS42 KCAE 260900 AAA
TAFOGB
TAF AMD
KOGB 260910Z 2609/2706 19004KT P6SM FEW070 BKN100
     FM261100 24006KT P6SM VCSH BKN035 BKN100
     FM261500 27012G20KT P6SM BKN035 BKN100
     FM261800 29015G25KT P6SM BKN120
     FM270200 30011G17KT P6SM SCT150=



000
FTUS42 KCAE 260900 AAA
TAFDNL
TAF AMD
KDNL 260910Z 2609/2706 18005KT P6SM SCT060 BKN100
     FM261100 24006KT P6SM BKN035 BKN100
     FM261400 27012G20KT P6SM BKN035 BKN120
     FM261700 29015G25KT P6SM BKN120
     FM270200 29012G18KT P6SM SCT150=



000
FTUS42 KCAE 260900 AAA
TAFCAE
TAF AMD
KCAE 260910Z 2609/2706 VRB04KT P6SM SCT070 BKN100
     FM261100 24006KT P6SM VCSH BKN035 BKN100
     FM261500 27011G18KT P6SM VCSH BKN035 BKN100
     FM261800 29015G25KT P6SM BKN120
     FM270200 30010G15KT P6SM SCT150=



000
FTUS42 KCAE 260900 AAA
TAFAGS
TAF AMD
KAGS 260910Z 2609/2706 19005KT P6SM SCT060 BKN100
     FM261100 24006KT P6SM BKN035 BKN100
     FM261400 27012G20KT P6SM BKN035 BKN120
     FM261700 29015G25KT P6SM BKN120
     FM270200 29012G18KT P6SM SCT150=



000
FTUS42 KCAE 260900 AAA
TAFCUB
TAF AMD
KCUB 260910Z 2609/2706 VRB03KT P6SM SCT070 BKN100
     FM261100 24006KT P6SM VCSH BKN035 BKN100
     FM261500 27012G20KT P6SM VCSH BKN035 BKN100
     FM261800 29015G25KT P6SM BKN120
     FM270200 30010G15KT P6SM SCT150=



000
FTUS42 KCAE 260500
TAFOGB
TAF
KOGB 260536Z 2606/2706 19004KT P6SM FEW050 BKN120
     FM261100 24006KT P6SM VCSH BKN035 BKN120
     FM261500 27012G20KT P6SM SCT035 BKN120
     FM261800 29015G25KT P6SM BKN120
     FM270200 30011G17KT P6SM SCT150=



000
FTUS42 KCAE 260500
TAFDNL
TAF
KDNL 260536Z 2606/2706 18005KT P6SM SCT050 BKN120
     FM261100 24006KT P6SM VCSH BKN035 BKN120
     FM261400 27012G20KT P6SM SCT035 BKN120
     FM261700 29015G25KT P6SM BKN120
     FM270200 29012G18KT P6SM SCT150=



000
FTUS42 KCAE 260500
TAFAGS
TAF
KAGS 260536Z 2606/2706 19005KT P6SM SCT050 BKN120
     FM261100 24006KT P6SM VCSH BKN035 BKN120
     FM261400 27012G20KT P6SM SCT035 BKN120
     FM261700 29015G25KT P6SM BKN120
     FM270200 29012G18KT P6SM SCT150=



000
FTUS42 KCAE 260500
TAFCUB
TAF
KCUB 260536Z 2606/2706 VRB03KT P6SM SCT050 BKN100
     FM261100 24006KT P6SM VCSH BKN035 BKN120
     FM261500 27012G20KT P6SM VCSH SCT035 BKN120
     FM261800 29015G25KT P6SM BKN120
     FM270200 30010G15KT P6SM SCT150=



000
FTUS42 KCAE 260500
TAFCAE
TAF
KCAE 260536Z 2606/2706 VRB04KT P6SM SCT050 BKN100
     FM261100 24006KT P6SM VCSH BKN035 BKN120
     FM261500 27011G18KT P6SM VCSH SCT035 BKN120
     FM261800 29015G25KT P6SM BKN120
     FM270200 30010G15KT P6SM SCT150=



000
FTUS42 KCAE 260300 AAA
TAFCAE
TAF AMD
KCAE 260302Z 2603/2624 23004KT P6SM BKN120
     FM261100 24006KT P6SM BKN035
     FM261500 27012G20KT P6SM SCT035 BKN120
     FM261800 29015G25KT P6SM BKN120=



000
FTUS42 KCAE 260300 AAA
TAFOGB
TAF AMD
KOGB 260302Z 2603/2624 19003KT P6SM SCT120
     FM260400 20003KT P6SM BKN120
     FM261100 24006KT P6SM BKN035
     FM261500 27012G20KT P6SM SCT035 BKN120
     FM261800 29015G25KT P6SM BKN120=



000
FTUS42 KCAE 260300 AAA
TAFDNL
TAF AMD
KDNL 260302Z 2603/2624 19005KT P6SM BKN120
     FM261100 24006KT P6SM BKN035
     FM261400 27012G20KT P6SM SCT035 BKN120
     FM261700 29015G25KT P6SM BKN120=



000
FTUS42 KCAE 260300 AAA
TAFCUB
TAF AMD
KCUB 260302Z 2603/2624 17003KT P6SM BKN120
     FM261100 24006KT P6SM BKN035
     FM261500 27012G20KT P6SM SCT035 BKN120
     FM261800 29015G25KT P6SM BKN120=



000
FTUS42 KCAE 260300 AAA
TAFAGS
TAF AMD
KAGS 260302Z 2603/2624 19005KT P6SM BKN120
     FM261100 24006KT P6SM BKN035
     FM261400 27012G20KT P6SM SCT035 BKN120
     FM261700 29015G25KT P6SM BKN120=



000
FTUS42 KCAE 252300
TAFOGB
TAF
KOGB 252336Z 2600/2624 20006KT P6SM SCT120
     FM260400 22006KT P6SM SCT035 BKN120
     FM261100 24006KT P6SM BKN035
     FM261500 27012G20KT P6SM SCT035 BKN120
     FM261800 29015G25KT P6SM BKN120=



000
FTUS42 KCAE 252300
TAFAGS
TAF
KAGS 252336Z 2600/2624 21007KT P6SM SCT120
     FM260300 22006KT P6SM SCT035 BKN120
     FM261100 24006KT P6SM BKN035
     FM261400 27012G20KT P6SM SCT035 BKN120
     FM261700 29015G25KT P6SM BKN120=



000
FTUS42 KCAE 252300
TAFCUB
TAF
KCUB 252336Z 2600/2624 20006KT P6SM SCT120
     FM260300 22006KT P6SM SCT035 BKN120
     FM261100 24006KT P6SM BKN035
     FM261500 27012G20KT P6SM SCT035 BKN120
     FM261800 29015G25KT P6SM BKN120=



000
FTUS42 KCAE 252300
TAFDNL
TAF
KDNL 252336Z 2600/2624 21007KT P6SM SCT120
     FM260300 22006KT P6SM SCT035 BKN120
     FM261100 24006KT P6SM BKN035
     FM261400 27012G20KT P6SM SCT035 BKN120
     FM261700 29015G25KT P6SM BKN120=



000
FTUS42 KCAE 252300
TAFCAE
TAF
KCAE 252336Z 2600/2624 20006KT P6SM SCT120
     FM260300 22006KT P6SM SCT035 BKN120
     FM261100 24006KT P6SM BKN035
     FM261500 27012G20KT P6SM SCT035 BKN120
     FM261800 29015G25KT P6SM BKN120=



000
FTUS42 KCAE 252000 AAA
TAFCUB
TAF AMD
KCUB 252038Z 2521/2618 20008KT P6SM SKC
     FM260500 23005KT P6SM BKN035 OVC100
     FM261400 27012KT P6SM SCT025 BKN100=



000
FTUS42 KCAE 252000 AAA
TAFCAE
TAF AMD
KCAE 252038Z 2521/2618 20010KT P6SM SKC
     FM260500 22006KT P6SM BKN035 OVC100
     FM261400 27012KT P6SM SCT025 BKN100=



000
FTUS42 KCAE 252000 AAA
TAFOGB
TAF AMD
KOGB 252038Z 2521/2618 22010KT P6SM SKC
     FM260500 23006KT P6SM BKN035 OVC100
     FM261400 27012KT P6SM SCT025 BKN100=



000
FTUS42 KCAE 252000 AAA
TAFAGS
TAF AMD
KAGS 252038Z 2521/2618 22009KT P6SM SKC
     FM260400 23006KT P6SM BKN035 OVC100
     FM261400 29012KT P6SM SCT025 BKN100=



000
FTUS42 KCAE 252000 AAA
TAFDNL
TAF AMD
KDNL 252038Z 2521/2618 22010KT P6SM SKC
     FM260400 23006KT P6SM BKN035 OVC100
     FM261400 29012KT P6SM SCT025 BKN100=



    US Dept of Commerce
    National Oceanic and Atmospheric Administration
    National Weather Service
    1325 East West Highway
    Silver Spring, MD 20910
    Page Author: NWS Internet Services Team
Disclaimer
Information Quality
Credits
Glossary
Privacy Policy
Freedom of Information Act (FOIA)
About Us
Career Opportunities